Impacts TAF Board
For situational awareness. Not to be used for flight planning purposes.
IDs:

KCVG - Cincinnati Intl, KY, US

Issued at 2336 UTC 19 Jul 2019
Updated at 0054 UTC 20 Jul 2019
Potential Impact None Slight Moderate High
Time<<20/13Z 20/14Z 20/15Z 20/16Z 20/17Z 20/18Z 20/19Z 20/20Z 20/21Z 20/22Z 20/23Z 21/00Z 21/01Z>>
Type PRVL
  [TEMP]  
PRVL PRVL PRVL PRVL PRVL PRVL PRVL PRVL PRVL PRVL PRVL PRVL
VIS >6 >6 >6 >6 >6 >6 >6 >6 >6 >6 >6 >6 >6
CIG --
  [25]  
-- -- -- -- -- -- -- -- -- -- -- --
Cover SKC
  [BKN]  
SCT SCT SCT SCT SCT SCT SCT SCT SKC SKC SKC SKC
FltCat VFR
  [MVFR]  
VFR VFR VFR VFR VFR VFR VFR VFR VFR VFR VFR VFR
WX --
  [--]  
-- -- -- -- -- -- -- -- -- -- -- --
WDir 230
[230]
220 220 220 220 220 220 220 220 210 210 210 210
WSpd 6
  [6]  
8 8 8 8 8 8 8 8 4 4 4 4
WGst --
  [--]  
-- -- -- -- -- -- -- -- -- -- -- --
Raw TAF
KCVG 192336Z 2000/2106 23006KT P6SM SKC
  TEMPO 2010/2014 BKN025
  FM201400 22008KT P6SM SCT040
  FM202200 21004KT P6SM SKC


METAR Board
Radar Display
Forecast Discussion
For situational awareness. Not to be used for flight planning purposes.